Time;durP1;ratioP1;P1;durP2;ratioP2;P2;SDS_P1;SDS_P2;PMS_P1;PMS_P2;Temp;Humidity;BMP_temperature;BMP_pressure;BME280_temperature;BME280_humidity;BME280_pressure;Samples;Min_cycle;Max_cycle;Signal;HPM_P1;HPM_P2
2022/03/13 00:00:19;;;;;;;6.40;5.05;;;3.00;61.40;;;;;;5072876;28;20040;-51
2022/03/13 00:02:45;;;;;;;6.47;5.82;;;3.00;62.20;;;;;;5072267;28;20029;-52
2022/03/13 00:05:16;;;;;;;8.43;5.88;;;2.90;61.70;;;;;;5054896;28;20492;-48
2022/03/13 00:07:43;;;;;;;7.78;5.63;;;2.90;62.30;;;;;;5072905;28;20055;-49
2022/03/13 00:10:10;;;;;;;9.05;5.57;;;2.90;62.00;;;;;;5073030;28;20086;-50
2022/03/13 00:12:37;;;;;;;9.65;5.30;;;2.90;61.80;;;;;;5071934;28;20503;-51
2022/03/13 00:15:05;;;;;;;9.93;6.13;;;2.90;62.20;;;;;;5072438;28;20016;-51
2022/03/13 00:17:31;;;;;;;6.30;5.03;;;2.90;62.90;;;;;;5072438;28;20033;-51
2022/03/13 00:20:02;;;;;;;8.30;5.30;;;2.80;63.00;;;;;;5071522;28;20037;-49
2022/03/13 00:22:31;;;;;;;9.02;5.97;;;2.80;62.30;;;;;;5071865;28;20060;-49
2022/03/13 00:24:59;;;;;;;8.82;5.72;;;2.70;63.30;;;;;;5072713;28;20392;-49
2022/03/13 00:27:25;;;;;;;8.05;5.70;;;2.70;62.40;;;;;;5053887;28;20024;-50
2022/03/13 00:29:52;;;;;;;8.27;5.68;;;2.60;64.20;;;;;;5071230;28;20055;-51
2022/03/13 00:32:17;;;;;;;8.68;5.55;;;2.60;62.90;;;;;;5071690;28;20235;-49
2022/03/13 00:34:43;;;;;;;7.60;5.70;;;2.60;63.60;;;;;;5071710;28;20025;-49
2022/03/13 00:37:10;;;;;;;7.72;5.72;;;2.50;63.40;;;;;;5071310;28;20032;-49
2022/03/13 00:39:39;;;;;;;8.07;6.28;;;2.50;63.30;;;;;;5071721;28;20020;-50
2022/03/13 00:42:05;;;;;;;7.88;5.80;;;2.50;62.80;;;;;;5071190;28;20047;-51
2022/03/13 00:44:31;;;;;;;9.55;6.15;;;2.50;63.00;;;;;;5053948;28;20455;-51
2022/03/13 00:46:56;;;;;;;6.40;5.18;;;2.50;63.30;;;;;;5072451;28;20131;-51
2022/03/13 00:49:22;;;;;;;7.10;5.55;;;2.50;63.20;;;;;;5071978;28;20133;-50
2022/03/13 00:51:47;;;;;;;6.65;5.50;;;2.40;63.40;;;;;;5054255;28;20047;-52
2022/03/13 00:54:13;;;;;;;7.75;5.55;;;2.40;64.10;;;;;;5070971;28;20020;-51
2022/03/13 00:56:38;;;;;;;8.35;6.03;;;2.30;63.70;;;;;;5071103;28;20463;-51
2022/03/13 00:59:04;;;;;;;9.18;6.05;;;2.30;64.80;;;;;;5071486;28;20029;-50
2022/03/13 01:01:29;;;;;;;7.65;5.88;;;2.30;64.10;;;;;;5067691;28;20920;-50
2022/03/13 01:03:55;;;;;;;7.90;5.72;;;2.30;64.90;;;;;;5070643;28;20017;-53
2022/03/13 01:06:22;;;;;;;6.97;5.95;;;2.20;64.60;;;;;;5049504;28;20405;-54
2022/03/13 01:08:50;;;;;;;8.60;5.63;;;2.10;65.70;;;;;;5068673;28;20029;-51
2022/03/13 01:11:18;;;;;;;8.05;5.35;;;2.10;64.30;;;;;;5071341;28;20070;-48
2022/03/13 01:13:45;;;;;;;7.95;6.25;;;2.10;64.00;;;;;;5071040;28;20039;-51
2022/03/13 01:16:21;;;;;;;10.25;6.05;;;2.00;64.60;;;;;;5053469;28;20029;-51
2022/03/13 01:18:49;;;;;;;11.20;6.75;;;2.00;64.50;;;;;;5071515;28;20108;-52
2022/03/13 01:21:15;;;;;;;7.90;6.32;;;2.00;64.50;;;;;;5071252;28;20036;-49
2022/03/13 01:23:54;;;;;;;9.23;5.78;;;1.90;64.50;;;;;;5071479;28;20694;-49
2022/03/13 01:26:23;;;;;;;9.52;5.80;;;1.90;65.60;;;;;;5070928;28;20037;-49
2022/03/13 01:28:58;;;;;;;8.88;5.55;;;1.90;65.10;;;;;;5070556;28;20330;-51
2022/03/13 01:31:26;;;;;;;8.30;5.83;;;1.80;65.30;;;;;;5068103;28;20464;-52
2022/03/13 01:33:51;;;;;;;6.97;5.55;;;1.80;64.90;;;;;;5071095;28;20282;-49
2022/03/13 01:36:17;;;;;;;8.07;6.40;;;1.80;65.10;;;;;;5070211;28;20036;-49
2022/03/13 01:38:44;;;;;;;7.10;6.30;;;1.80;65.20;;;;;;5070777;28;20036;-49
2022/03/13 01:41:09;;;;;;;7.55;5.65;;;1.80;65.80;;;;;;5070912;28;20129;-49
2022/03/13 01:43:36;;;;;;;7.40;5.93;;;1.70;65.50;;;;;;5070063;28;20184;-50
2022/03/13 01:46:03;;;;;;;8.02;5.53;;;1.70;66.10;;;;;;5070646;28;20032;-48
2022/03/13 01:48:37;;;;;;;7.55;5.78;;;1.70;67.00;;;;;;5070387;28;20033;-50
2022/03/13 01:51:03;;;;;;;7.80;6.20;;;1.60;66.90;;;;;;5070311;28;20063;-48
2022/03/13 01:53:29;;;;;;;8.43;5.85;;;1.50;66.30;;;;;;5039329;28;20039;-50
2022/03/13 01:55:58;;;;;;;8.48;5.95;;;1.50;67.30;;;;;;5070432;28;20024;-51
2022/03/13 01:58:24;;;;;;;7.93;5.55;;;1.50;68.40;;;;;;5068950;28;20058;-49
2022/03/13 02:00:49;;;;;;;10.95;5.75;;;1.40;66.90;;;;;;5062081;28;20032;-49
2022/03/13 02:03:16;;;;;;;8.15;6.10;;;1.40;66.60;;;;;;5068249;28;20028;-51
2022/03/13 02:05:43;;;;;;;9.38;5.68;;;1.40;67.20;;;;;;5070494;28;20040;-49
2022/03/13 02:08:19;;;;;;;7.80;6.15;;;1.40;66.90;;;;;;5070192;28;20098;-50
2022/03/13 02:10:45;;;;;;;7.60;5.72;;;1.40;66.70;;;;;;5070513;28;20421;-51
2022/03/13 02:13:13;;;;;;;10.93;6.25;;;1.40;67.80;;;;;;5069778;28;20098;-49
2022/03/13 02:15:39;;;;;;;9.13;5.57;;;1.40;67.60;;;;;;5070319;28;20048;-48
2022/03/13 02:18:06;;;;;;;7.65;5.57;;;1.30;68.00;;;;;;5068975;28;20121;-51
2022/03/13 02:20:41;;;;;;;9.48;6.05;;;1.20;67.90;;;;;;5069880;28;20108;-51
2022/03/13 02:23:17;;;;;;;7.50;5.50;;;1.20;67.80;;;;;;5069768;28;20025;-48
2022/03/13 02:25:43;;;;;;;7.40;5.35;;;1.20;68.30;;;;;;5069444;28;20524;-50
2022/03/13 02:28:09;;;;;;;9.18;6.43;;;1.10;69.00;;;;;;5069872;28;20028;-52
2022/03/13 02:30:35;;;;;;;8.07;5.63;;;1.10;69.20;;;;;;5069897;28;20028;-47
2022/03/13 02:33:00;;;;;;;7.68;6.15;;;1.00;69.20;;;;;;5069749;28;20031;-49
2022/03/13 02:35:29;;;;;;;9.75;5.85;;;1.00;69.20;;;;;;5070024;28;20111;-50
2022/03/13 02:37:56;;;;;;;9.48;6.13;;;1.00;69.80;;;;;;5052499;28;20025;-49
2022/03/13 02:40:26;;;;;;;11.35;6.53;;;0.90;69.30;;;;;;5069878;28;20039;-49
2022/03/13 02:42:52;;;;;;;11.80;6.03;;;1.00;69.00;;;;;;5069489;28;20070;-47
2022/03/13 02:45:32;;;;;;;9.38;6.38;;;0.90;69.20;;;;;;5069398;28;20044;-49
2022/03/13 02:47:59;;;;;;;8.75;5.57;;;0.90;70.30;;;;;;5069229;28;20037;-47
2022/03/13 02:50:25;;;;;;;9.93;6.65;;;0.90;70.40;;;;;;5068948;28;20037;-48
2022/03/13 02:52:51;;;;;;;15.50;6.30;;;0.80;70.70;;;;;;5069205;28;20616;-50
2022/03/13 02:55:17;;;;;;;8.05;5.90;;;0.80;70.40;;;;;;5069330;28;20029;-50
2022/03/13 02:57:43;;;;;;;8.90;6.50;;;0.80;70.20;;;;;;5069556;28;20432;-50
2022/03/13 03:00:09;;;;;;;11.07;5.88;;;0.70;71.30;;;;;;5069159;28;20067;-48
2022/03/13 03:02:35;;;;;;;8.93;6.43;;;0.70;70.60;;;;;;5068734;28;20032;-48
2022/03/13 03:05:06;;;;;;;11.40;5.80;;;0.70;70.70;;;;;;5051561;28;20427;-49
2022/03/13 03:07:32;;;;;;;9.55;5.90;;;0.70;71.10;;;;;;5051299;28;20028;-51
2022/03/13 03:09:57;;;;;;;9.23;6.03;;;0.60;71.00;;;;;;5052377;28;20097;-53
2022/03/13 03:12:23;;;;;;;11.57;7.03;;;0.60;70.70;;;;;;5068505;28;20033;-48
2022/03/13 03:14:48;;;;;;;10.85;6.20;;;0.60;72.40;;;;;;5069757;28;20406;-47
2022/03/13 03:17:14;;;;;;;9.35;6.22;;;0.60;71.80;;;;;;5068854;28;20074;-50
2022/03/13 03:19:40;;;;;;;10.60;6.50;;;0.60;72.40;;;;;;5052495;28;20028;-50
2022/03/13 03:22:05;;;;;;;9.85;6.43;;;0.50;72.50;;;;;;5069155;28;20112;-50
2022/03/13 03:24:31;;;;;;;9.90;6.40;;;0.50;72.40;;;;;;5068646;28;20423;-51
2022/03/13 03:26:58;;;;;;;15.55;7.68;;;0.40;73.20;;;;;;5068839;28;20535;-48
2022/03/13 03:29:25;;;;;;;15.88;7.53;;;0.50;72.60;;;;;;5068737;28;20468;-50
2022/03/13 03:31:51;;;;;;;14.52;7.00;;;0.40;74.30;;;;;;5068592;28;20111;-50
2022/03/13 03:34:20;;;;;;;11.85;6.70;;;0.40;74.40;;;;;;5068901;28;20115;-48
2022/03/13 03:36:49;;;;;;;10.20;6.80;;;0.40;74.10;;;;;;5068753;28;20033;-48
2022/03/13 03:39:16;;;;;;;11.23;7.10;;;0.40;74.30;;;;;;5068989;28;20035;-49
2022/03/13 03:41:44;;;;;;;11.43;7.32;;;0.40;73.80;;;;;;5069048;28;20032;-49
2022/03/13 03:44:11;;;;;;;14.05;7.30;;;0.40;74.40;;;;;;5068609;28;20051;-49
2022/03/13 03:46:37;;;;;;;9.70;6.88;;;0.30;74.60;;;;;;5068521;28;20495;-50
2022/03/13 03:49:04;;;;;;;10.07;6.65;;;0.30;75.10;;;;;;5068845;28;20040;-49
2022/03/13 03:51:29;;;;;;;10.82;7.57;;;0.30;75.10;;;;;;5069005;28;20036;-51
2022/03/13 03:53:55;;;;;;;9.43;7.07;;;0.30;75.30;;;;;;5068310;28;20584;-50
2022/03/13 03:56:21;;;;;;;10.27;7.40;;;0.30;75.20;;;;;;5068629;28;20476;-50
2022/03/13 03:58:46;;;;;;;16.48;7.82;;;0.30;75.70;;;;;;5068857;28;20043;-48
2022/03/13 04:01:12;;;;;;;14.55;6.88;;;0.30;76.00;;;;;;5051877;28;20035;-48
2022/03/13 04:03:38;;;;;;;12.02;7.65;;;0.20;76.40;;;;;;5068343;28;20028;-49
2022/03/13 04:06:03;;;;;;;10.93;6.93;;;0.20;75.90;;;;;;5068506;28;20033;-48
2022/03/13 04:08:29;;;;;;;12.70;7.30;;;0.30;76.30;;;;;;5068565;28;20496;-49
2022/03/13 04:10:55;;;;;;;12.52;7.60;;;0.20;76.00;;;;;;5068122;28;20037;-47
2022/03/13 04:13:20;;;;;;;15.23;7.38;;;0.20;76.60;;;;;;5068203;28;20044;-53
2022/03/13 04:15:46;;;;;;;11.77;7.15;;;0.20;76.30;;;;;;5068308;28;20033;-49
2022/03/13 04:18:12;;;;;;;11.18;7.55;;;0.30;76.30;;;;;;5068253;28;20039;-48
2022/03/13 04:20:38;;;;;;;11.02;7.90;;;0.20;76.70;;;;;;5068330;28;20032;-49
2022/03/13 04:23:03;;;;;;;10.30;6.88;;;0.20;76.90;;;;;;5068207;28;20553;-48
2022/03/13 04:25:29;;;;;;;12.25;7.28;;;0.20;76.50;;;;;;5067819;28;20119;-49
2022/03/13 04:27:57;;;;;;;11.40;7.47;;;0.20;77.70;;;;;;5068599;28;20116;-49
2022/03/13 04:30:23;;;;;;;11.30;7.18;;;0.20;77.00;;;;;;5067980;28;20027;-48
2022/03/13 04:32:49;;;;;;;12.25;6.93;;;0.20;78.50;;;;;;5068515;28;20388;-47
2022/03/13 04:35:14;;;;;;;11.98;7.45;;;0.10;78.50;;;;;;5066922;28;20032;-48
2022/03/13 04:37:40;;;;;;;11.75;7.82;;;0.10;77.80;;;;;;5068056;28;20035;-50
2022/03/13 04:40:06;;;;;;;10.60;7.22;;;0.10;78.20;;;;;;5068363;28;20115;-50
2022/03/13 04:42:31;;;;;;;11.98;7.10;;;0.10;78.00;;;;;;5052153;28;20043;-49
2022/03/13 04:44:57;;;;;;;11.15;7.78;;;0.10;77.90;;;;;;5071726;28;20454;-49
2022/03/13 04:47:22;;;;;;;10.40;7.25;;;0.10;77.80;;;;;;5072004;28;20096;-48
2022/03/13 04:49:48;;;;;;;11.93;7.30;;;0.10;77.50;;;;;;5070389;28;20020;-49
2022/03/13 04:52:13;;;;;;;10.45;7.78;;;0.00;78.50;;;;;;5071279;28;20021;-48
2022/03/13 04:54:39;;;;;;;10.10;6.72;;;0.00;78.60;;;;;;5071397;28;20028;-50
2022/03/13 04:57:05;;;;;;;11.43;7.80;;;0.00;78.80;;;;;;5071810;28;20433;-51
2022/03/13 04:59:30;;;;;;;12.27;7.68;;;0.00;79.00;;;;;;5071565;28;20107;-49
2022/03/13 05:01:56;;;;;;;13.57;6.88;;;0.00;77.90;;;;;;5070957;28;20206;-49
2022/03/13 05:04:21;;;;;;;10.80;7.30;;;0.00;78.40;;;;;;5071260;28;20024;-49
2022/03/13 05:06:47;;;;;;;11.45;7.72;;;0.00;78.50;;;;;;5072051;28;20021;-48
2022/03/13 05:09:13;;;;;;;11.90;7.70;;;-0.10;78.90;;;;;;5071226;28;20033;-48
2022/03/13 05:11:41;;;;;;;8.77;7.13;;;-0.10;78.50;;;;;;5071885;28;20082;-48
2022/03/13 05:14:07;;;;;;;11.60;7.13;;;-0.10;79.70;;;;;;5071310;28;20135;-50
2022/03/13 05:16:32;;;;;;;10.88;6.70;;;-0.10;79.10;;;;;;5071212;28;20539;-49
2022/03/13 05:18:58;;;;;;;9.57;6.68;;;-0.10;79.10;;;;;;5071293;28;20025;-50
2022/03/13 05:21:23;;;;;;;14.00;6.78;;;-0.20;78.60;;;;;;5071296;28;20025;-52
2022/03/13 05:23:49;;;;;;;11.63;7.38;;;-0.20;79.60;;;;;;5069078;28;20028;-49
2022/03/13 05:26:15;;;;;;;10.10;7.10;;;-0.20;80.30;;;;;;5070969;28;20111;-52
2022/03/13 05:28:40;;;;;;;9.35;6.93;;;-0.20;79.80;;;;;;5070588;28;20509;-49
2022/03/13 05:31:06;;;;;;;10.95;7.35;;;-0.20;80.10;;;;;;5066369;28;20021;-49
2022/03/13 05:33:31;;;;;;;9.45;6.53;;;-0.20;79.10;;;;;;5070507;28;20037;-48
2022/03/13 05:35:59;;;;;;;10.38;6.53;;;-0.10;80.10;;;;;;5070744;28;20153;-48
2022/03/13 05:38:24;;;;;;;11.02;7.40;;;-0.20;80.00;;;;;;5070492;28;20040;-49
2022/03/13 05:40:51;;;;;;;10.77;7.05;;;-0.20;79.40;;;;;;5071015;28;20060;-48
2022/03/13 05:43:18;;;;;;;12.63;6.95;;;-0.20;80.50;;;;;;5070755;28;20024;-47
2022/03/13 05:45:44;;;;;;;11.32;7.80;;;-0.30;80.10;;;;;;5070673;28;20081;-52
2022/03/13 05:48:15;;;;;;;11.00;7.43;;;-0.30;79.90;;;;;;5070772;28;20020;-48
2022/03/13 05:50:41;;;;;;;10.45;7.07;;;-0.30;81.80;;;;;;5070703;28;20067;-48
2022/03/13 05:53:06;;;;;;;9.13;7.00;;;-0.40;81.30;;;;;;5069460;28;20348;-48
2022/03/13 05:55:32;;;;;;;10.43;7.13;;;-0.40;81.80;;;;;;5070530;28;20032;-49
2022/03/13 05:57:59;;;;;;;11.43;7.03;;;-0.40;83.30;;;;;;5070554;28;20107;-49
2022/03/13 06:00:26;;;;;;;11.57;7.43;;;-0.50;83.20;;;;;;5069978;28;20028;-48
2022/03/13 06:02:52;;;;;;;10.98;7.35;;;-0.50;82.50;;;;;;5069829;28;20496;-49
2022/03/13 06:05:20;;;;;;;9.77;6.80;;;-0.50;82.40;;;;;;5070193;28;20055;-47
2022/03/13 06:07:46;;;;;;;9.75;7.72;;;-0.50;82.70;;;;;;5070378;28;20174;-51
2022/03/13 06:10:13;;;;;;;11.60;7.57;;;-0.40;83.00;;;;;;5070188;28;20112;-49
2022/03/13 06:12:38;;;;;;;10.82;7.25;;;-0.40;82.00;;;;;;5069928;28;20541;-45
2022/03/13 06:15:07;;;;;;;9.20;6.72;;;-0.30;82.40;;;;;;5069772;28;20105;-48
2022/03/13 06:17:36;;;;;;;9.63;7.00;;;-0.30;82.90;;;;;;5069672;28;20027;-47
2022/03/13 06:20:02;;;;;;;15.27;6.97;;;-0.30;81.20;;;;;;5069705;28;20028;-48
2022/03/13 06:22:28;;;;;;;12.80;7.63;;;-0.30;81.20;;;;;;5070240;28;20078;-47
2022/03/13 06:24:54;;;;;;;12.63;6.60;;;-0.30;82.10;;;;;;5066913;28;20431;-47
2022/03/13 06:27:21;;;;;;;13.27;7.18;;;-0.20;82.10;;;;;;5070003;28;20476;-48
2022/03/13 06:29:47;;;;;;;8.88;6.45;;;-0.20;80.80;;;;;;5051591;28;20424;-49
2022/03/13 06:32:12;;;;;;;12.05;7.55;;;-0.20;81.20;;;;;;5070159;28;20024;-50
2022/03/13 06:34:38;;;;;;;11.70;7.30;;;-0.20;83.00;;;;;;5069407;28;20029;-50
2022/03/13 06:37:04;;;;;;;9.48;6.53;;;-0.20;80.90;;;;;;5069325;28;20024;-48
2022/03/13 06:39:30;;;;;;;13.27;7.25;;;-0.10;80.00;;;;;;5069845;28;20074;-51
2022/03/13 06:41:56;;;;;;;12.68;6.45;;;0.00;79.60;;;;;;5069172;28;20025;-51
2022/03/13 06:44:22;;;;;;;11.10;6.57;;;0.00;78.60;;;;;;5069375;28;20021;-47
2022/03/13 06:46:48;;;;;;;10.98;7.18;;;0.10;77.80;;;;;;5069489;28;20032;-50
2022/03/13 06:49:13;;;;;;;10.73;6.65;;;0.30;77.30;;;;;;5069232;28;20025;-49
2022/03/13 06:51:39;;;;;;;7.80;5.95;;;0.30;75.90;;;;;;5069240;28;20050;-49
2022/03/13 06:54:06;;;;;;;8.18;5.90;;;0.40;76.10;;;;;;5067813;28;20480;-49
2022/03/13 06:56:32;;;;;;;9.32;6.43;;;0.50;75.30;;;;;;5069097;28;20068;-49
2022/03/13 06:59:03;;;;;;;9.38;6.70;;;0.50;75.30;;;;;;5068846;28;20051;-49
2022/03/13 07:01:40;;;;;;;11.70;6.88;;;0.60;74.40;;;;;;5069535;28;20020;-51
2022/03/13 07:04:05;;;;;;;9.85;6.05;;;0.70;75.00;;;;;;5069043;28;20036;-48
2022/03/13 07:06:33;;;;;;;9.32;6.72;;;0.70;74.30;;;;;;5068449;28;20037;-50
2022/03/13 07:08:59;;;;;;;9.13;6.63;;;0.80;72.10;;;;;;5069033;28;20024;-50
2022/03/13 07:11:26;;;;;;;8.20;6.28;;;0.90;72.80;;;;;;5069451;28;20056;-49
2022/03/13 07:13:52;;;;;;;9.68;6.10;;;1.00;71.80;;;;;;5068848;28;20413;-48
2022/03/13 07:16:18;;;;;;;11.15;6.22;;;1.10;71.40;;;;;;5069058;28;20103;-47
2022/03/13 07:18:44;;;;;;;10.60;6.15;;;1.20;69.70;;;;;;5067954;28;20021;-48
2022/03/13 07:21:10;;;;;;;13.00;6.00;;;1.30;69.60;;;;;;5068955;28;20031;-48
2022/03/13 07:23:37;;;;;;;8.82;6.50;;;1.40;68.20;;;;;;5068965;28;20028;-51
2022/03/13 07:26:03;;;;;;;9.55;6.07;;;1.50;68.30;;;;;;5068801;28;20476;-52
2022/03/13 07:28:29;;;;;;;9.57;6.75;;;1.60;67.90;;;;;;5068284;28;20085;-50
2022/03/13 07:30:55;;;;;;;8.75;5.97;;;1.70;67.40;;;;;;5068762;28;20047;-49
2022/03/13 07:33:20;;;;;;;10.05;6.15;;;1.70;67.80;;;;;;5068626;28;20480;-49
2022/03/13 07:35:46;;;;;;;10.98;6.05;;;1.80;67.20;;;;;;5069001;28;20112;-48
2022/03/13 07:38:12;;;;;;;8.82;6.60;;;1.80;66.80;;;;;;5068607;28;20020;-51
2022/03/13 07:40:37;;;;;;;8.88;6.55;;;1.90;66.80;;;;;;5069735;28;20112;-48
2022/03/13 07:43:04;;;;;;;8.30;6.03;;;2.00;65.60;;;;;;5068433;28;20039;-51
2022/03/13 07:45:30;;;;;;;8.48;6.13;;;2.10;65.60;;;;;;5068503;28;20420;-48
2022/03/13 07:47:57;;;;;;;13.48;6.72;;;2.20;65.70;;;;;;5068910;28;20016;-46
2022/03/13 07:50:23;;;;;;;9.30;6.35;;;2.30;65.50;;;;;;5067423;28;20041;-49
2022/03/13 07:52:50;;;;;;;9.10;6.03;;;2.40;64.60;;;;;;5068416;28;20423;-49
2022/03/13 07:55:16;;;;;;;8.77;5.75;;;2.50;64.60;;;;;;5068303;28;20025;-52
2022/03/13 07:57:42;;;;;;;8.95;6.35;;;2.60;64.80;;;;;;5068456;28;20060;-49
2022/03/13 08:00:10;;;;;;;8.68;6.30;;;2.70;63.70;;;;;;5068424;28;20064;-49
2022/03/13 08:02:36;;;;;;;11.75;6.65;;;2.90;62.70;;;;;;5067741;28;20116;-50
2022/03/13 08:05:02;;;;;;;10.13;6.07;;;3.00;62.40;;;;;;5068550;28;20167;-49
2022/03/13 08:07:28;;;;;;;8.68;5.97;;;3.10;62.40;;;;;;5068422;28;20567;-49
2022/03/13 08:09:54;;;;;;;9.85;6.35;;;3.30;62.40;;;;;;5068531;28;20211;-48
2022/03/13 08:12:20;;;;;;;9.18;6.50;;;3.40;61.40;;;;;;5068148;28;20042;-49
2022/03/13 08:14:46;;;;;;;10.55;6.70;;;3.50;62.40;;;;;;5068449;28;20460;-49
2022/03/13 08:17:11;;;;;;;8.15;5.82;;;3.70;60.70;;;;;;5070252;28;20032;-52
2022/03/13 08:19:37;;;;;;;10.02;6.97;;;3.90;60.90;;;;;;5072602;28;20089;-49
2022/03/13 08:22:03;;;;;;;8.77;6.05;;;4.00;61.10;;;;;;5072122;28;20024;-49
2022/03/13 08:24:29;;;;;;;8.15;6.72;;;4.20;60.80;;;;;;5072610;28;20565;-51
2022/03/13 08:26:54;;;;;;;9.93;6.03;;;4.40;58.40;;;;;;5051128;28;20033;-48
2022/03/13 08:29:20;;;;;;;9.07;6.68;;;4.60;58.90;;;;;;5063499;28;20104;-51
2022/03/13 08:31:45;;;;;;;9.82;6.10;;;4.80;58.80;;;;;;5065208;28;20079;-55
2022/03/13 08:34:11;;;;;;;10.10;5.95;;;4.90;58.40;;;;;;5070068;28;20036;-52
2022/03/13 08:36:43;;;;;;;9.15;6.30;;;5.10;57.90;;;;;;5071583;28;20028;-51
2022/03/13 08:39:09;;;;;;;10.05;6.50;;;5.30;57.20;;;;;;5072190;28;20163;-54
2022/03/13 08:41:35;;;;;;;10.13;6.55;;;5.50;56.60;;;;;;5071912;28;20104;-51
2022/03/13 08:44:00;;;;;;;8.18;6.30;;;5.50;55.60;;;;;;5071597;28;20017;-51
2022/03/13 08:46:26;;;;;;;9.55;6.25;;;5.60;55.20;;;;;;5071762;28;20542;-50
2022/03/13 08:48:52;;;;;;;11.55;6.85;;;5.70;55.30;;;;;;5072165;28;20050;-52
2022/03/13 08:51:19;;;;;;;9.20;6.22;;;5.80;55.80;;;;;;5072212;28;20428;-49
2022/03/13 08:53:46;;;;;;;8.75;6.38;;;5.90;56.20;;;;;;5054400;28;20048;-50
2022/03/13 08:56:13;;;;;;;6.40;5.55;;;6.20;55.10;;;;;;5072091;28;20158;-52
2022/03/13 08:58:43;;;;;;;11.68;6.40;;;6.40;53.60;;;;;;5053531;28;20020;-51
2022/03/13 09:01:12;;;;;;;9.52;6.57;;;6.40;54.20;;;;;;5072080;28;20020;-51
2022/03/13 09:03:37;;;;;;;7.97;5.97;;;6.60;54.70;;;;;;5071589;28;20029;-51
2022/03/13 09:06:03;;;;;;;8.52;6.28;;;6.70;55.00;;;;;;5071793;28;20113;-51
2022/03/13 09:08:29;;;;;;;7.82;6.47;;;6.80;53.10;;;;;;5071765;28;20032;-54
2022/03/13 09:10:55;;;;;;;8.30;6.25;;;6.80;51.50;;;;;;5071505;28;20032;-50
2022/03/13 09:13:21;;;;;;;8.48;6.38;;;6.90;53.10;;;;;;5070982;28;20024;-52
2022/03/13 09:15:50;;;;;;;7.20;5.35;;;7.10;53.40;;;;;;5071414;28;20086;-51
2022/03/13 09:18:16;;;;;;;9.63;6.30;;;7.10;52.20;;;;;;5071047;28;20031;-52
2022/03/13 09:20:42;;;;;;;8.80;5.72;;;7.30;53.40;;;;;;5071657;28;20037;-52
2022/03/13 09:23:07;;;;;;;8.77;6.60;;;7.40;52.60;;;;;;5068192;28;20035;-51
2022/03/13 09:25:34;;;;;;;8.40;6.55;;;7.60;53.60;;;;;;5070538;28;20095;-50
2022/03/13 09:28:00;;;;;;;7.95;5.90;;;7.70;52.20;;;;;;5052496;28;20016;-51
2022/03/13 09:30:26;;;;;;;6.13;5.35;;;7.90;51.50;;;;;;5071122;28;20019;-50
2022/03/13 09:32:52;;;;;;;7.93;5.68;;;8.00;51.30;;;;;;5070848;28;20116;-54
2022/03/13 09:35:18;;;;;;;9.07;6.47;;;8.00;51.00;;;;;;5070872;28;20043;-51
2022/03/13 09:37:43;;;;;;;8.80;6.20;;;8.10;50.40;;;;;;5071060;28;20077;-50
2022/03/13 09:40:10;;;;;;;10.32;5.93;;;8.10;50.10;;;;;;5070624;28;20013;-55
2022/03/13 09:42:37;;;;;;;8.05;6.03;;;8.10;49.10;;;;;;5070098;28;20054;-49
2022/03/13 09:45:04;;;;;;;7.55;5.80;;;8.00;49.70;;;;;;5071077;28;20028;-49
2022/03/13 09:47:31;;;;;;;7.93;5.88;;;8.10;50.60;;;;;;5070726;28;20431;-49
2022/03/13 09:49:57;;;;;;;9.77;6.00;;;8.20;51.00;;;;;;5070414;28;20040;-51
2022/03/13 09:52:23;;;;;;;6.72;5.95;;;8.30;50.50;;;;;;5069682;28;20483;-53
2022/03/13 09:54:49;;;;;;;9.85;6.03;;;8.50;50.10;;;;;;5070810;28;20101;-49
2022/03/13 09:57:14;;;;;;;9.80;6.28;;;8.50;49.00;;;;;;5070246;28;20020;-52
2022/03/13 09:59:43;;;;;;;8.15;6.25;;;8.60;51.20;;;;;;5070812;28;20024;-54
2022/03/13 10:02:09;;;;;;;7.63;5.25;;;8.80;50.70;;;;;;5070869;28;20033;-53
2022/03/13 10:04:35;;;;;;;8.75;6.60;;;8.80;49.50;;;;;;5070018;28;20040;-50
2022/03/13 10:07:08;;;;;;;6.32;5.63;;;8.80;49.70;;;;;;5053004;28;20064;-51
2022/03/13 10:09:35;;;;;;;8.48;6.07;;;8.90;50.20;;;;;;5070177;28;20511;-50
2022/03/13 10:12:13;;;;;;;9.88;6.22;;;9.00;50.60;;;;;;5069716;28;20082;-53
2022/03/13 10:14:57;;;;;;;7.68;5.55;;;8.90;49.60;;;;;;5070011;28;20032;-53
2022/03/13 10:17:27;;;;;;;8.10;5.72;;;8.90;49.30;;;;;;5069585;28;20029;-52
2022/03/13 10:19:53;;;;;;;8.00;5.82;;;8.90;49.60;;;;;;5069864;28;20484;-53
2022/03/13 10:22:19;;;;;;;7.28;5.97;;;8.90;49.40;;;;;;5070388;28;20377;-52
2022/03/13 10:24:46;;;;;;;7.85;6.07;;;9.00;49.40;;;;;;5070176;28;20082;-52
2022/03/13 10:27:20;;;;;;;9.52;6.20;;;9.00;49.00;;;;;;5069563;28;20040;-51
2022/03/13 10:29:48;;;;;;;9.05;6.00;;;9.10;49.20;;;;;;5069792;28;20036;-53
2022/03/13 10:32:14;;;;;;;9.40;6.03;;;9.10;48.90;;;;;;5069505;28;20036;-53
2022/03/13 10:34:40;;;;;;;7.38;6.03;;;9.10;49.50;;;;;;5069677;28;20107;-52
2022/03/13 10:37:06;;;;;;;8.10;5.75;;;9.10;50.50;;;;;;5069481;28;20120;-53
2022/03/13 10:39:35;;;;;;;8.43;6.28;;;9.20;50.10;;;;;;5069097;28;20107;-52
2022/03/13 10:42:03;;;;;;;8.63;5.88;;;9.40;50.40;;;;;;5069175;28;20032;-53
2022/03/13 10:44:34;;;;;;;9.73;5.75;;;9.50;50.30;;;;;;5069373;28;20021;-54
2022/03/13 10:47:05;;;;;;;8.65;5.80;;;9.60;49.80;;;;;;5069509;28;20037;-52
2022/03/13 10:49:42;;;;;;;8.80;6.30;;;9.70;48.30;;;;;;5069570;28;20020;-50
2022/03/13 10:52:25;;;;;;;8.43;6.20;;;9.60;48.40;;;;;;5069081;28;20028;-52
2022/03/13 10:54:55;;;;;;;6.80;5.45;;;9.60;49.10;;;;;;5069564;28;20512;-55
2022/03/13 10:57:21;;;;;;;9.80;6.88;;;9.70;48.50;;;;;;5068434;28;20028;-50
2022/03/13 11:00:06;;;;;;;8.82;6.43;;;9.70;48.40;;;;;;5068538;28;20545;-55
2022/03/13 11:02:32;;;;;;;9.27;5.80;;;9.70;49.50;;;;;;5068614;28;20456;-51
2022/03/13 11:04:58;;;;;;;6.93;5.80;;;9.80;49.20;;;;;;5068479;28;20063;-49
2022/03/13 11:07:27;;;;;;;7.82;5.80;;;9.80;48.30;;;;;;5068353;28;20101;-52
2022/03/13 11:09:54;;;;;;;7.60;5.85;;;9.80;48.80;;;;;;5068112;28;20594;-52
2022/03/13 11:12:21;;;;;;;7.10;5.72;;;9.80;49.40;;;;;;5068082;28;20017;-53
2022/03/13 11:14:52;;;;;;;7.75;5.57;;;9.90;49.00;;;;;;5068138;28;20025;-52
2022/03/13 11:17:21;;;;;;;7.43;5.95;;;9.90;48.70;;;;;;5068430;28;20017;-52
2022/03/13 11:19:49;;;;;;;8.40;5.63;;;10.00;48.40;;;;;;5068215;28;20614;-54
2022/03/13 11:22:17;;;;;;;8.35;5.70;;;10.00;48.20;;;;;;5057243;28;20086;-52
2022/03/13 11:24:43;;;;;;;6.75;4.90;;;10.00;47.20;;;;;;5069037;28;20017;-51
2022/03/13 11:27:11;;;;;;;9.15;5.80;;;10.00;47.50;;;;;;5068347;28;20112;-52
2022/03/13 11:29:40;;;;;;;9.55;5.60;;;10.00;49.50;;;;;;5068880;28;20032;-51
2022/03/13 11:32:32;;;;;;;6.57;5.88;;;10.20;48.90;;;;;;5069042;28;20082;-53
2022/03/13 11:35:19;;;;;;;10.85;5.82;;;10.30;48.60;;;;;;5065871;28;20043;-51
2022/03/13 11:37:45;;;;;;;;;;;10.40;48.60;;;;;;5069560;28;20028;-53
2022/03/13 11:40:13;;;;;;;7.60;5.78;;;10.40;47.40;;;;;;5068812;28;19908;-49
2022/03/13 11:42:54;;;;;;;7.10;5.25;;;10.50;48.50;;;;;;5069100;28;20484;-50
2022/03/13 11:45:29;;;;;;;9.05;5.85;;;10.60;49.10;;;;;;5068640;28;20041;-51
2022/03/13 11:48:19;;;;;;;6.68;5.82;;;10.70;49.20;;;;;;5069448;28;20024;-49
2022/03/13 11:50:59;;;;;;;8.18;6.13;;;10.70;49.10;;;;;;5069880;28;20020;-52
2022/03/13 11:53:40;;;;;;;7.15;5.97;;;10.70;49.70;;;;;;5072364;28;20046;-50
2022/03/13 11:56:09;;;;;;;7.10;5.72;;;10.70;48.70;;;;;;5072697;28;20020;-51
2022/03/13 11:58:42;;;;;;;8.63;6.28;;;10.70;48.60;;;;;;5072740;28;20032;-51
2022/03/13 12:01:10;;;;;;;7.80;6.07;;;10.70;49.10;;;;;;5071511;28;20039;-51
2022/03/13 12:03:36;;;;;;;7.43;6.03;;;10.60;48.50;;;;;;5071883;28;20511;-53
2022/03/13 12:06:02;;;;;;;7.78;5.72;;;10.70;48.00;;;;;;5072792;28;20040;-52
2022/03/13 12:09:03;;;;;;;7.93;5.78;;;10.60;49.40;;;;;;5072560;28;20399;-50
2022/03/13 12:11:52;;;;;;;6.22;5.60;;;10.70;49.40;;;;;;5067007;28;20118;-53
2022/03/13 12:14:19;;;;;;;7.80;5.32;;;10.80;49.30;;;;;;5052555;28;20025;-49
2022/03/13 12:16:47;;;;;;;7.63;6.13;;;10.80;48.90;;;;;;5052494;28;20036;-51
2022/03/13 12:19:16;;;;;;;7.35;6.25;;;10.80;48.30;;;;;;5052371;28;20017;-52
2022/03/13 12:21:47;;;;;;;7.78;5.93;;;10.90;49.10;;;;;;5068282;28;20075;-53
2022/03/13 12:24:18;;;;;;;8.63;6.40;;;10.90;48.40;;;;;;5071042;28;20115;-54
2022/03/13 12:26:52;;;;;;;7.65;5.60;;;10.90;49.00;;;;;;5071981;28;20581;-53
2022/03/13 12:29:19;;;;;;;9.02;5.63;;;10.90;48.40;;;;;;5072278;28;20028;-53
2022/03/13 12:31:48;;;;;;;7.15;5.57;;;10.90;47.30;;;;;;5071712;28;20036;-51
2022/03/13 12:34:23;;;;;;;7.43;5.72;;;10.90;48.10;;;;;;5071885;28;20032;-50
2022/03/13 12:36:49;;;;;;;7.03;5.87;;;10.90;48.10;;;;;;5071395;28;20031;-51
2022/03/13 12:39:16;;;;;;;9.25;6.53;;;11.00;47.90;;;;;;5071804;28;20029;-51
2022/03/13 12:41:44;;;;;;;6.70;5.88;;;11.00;47.70;;;;;;5071927;28;20113;-52
2022/03/13 12:44:12;;;;;;;6.97;5.80;;;11.00;47.20;;;;;;5072054;28;20192;-57
2022/03/13 12:46:38;;;;;;;12.00;5.45;;;11.10;47.10;;;;;;5072182;28;20043;-53
2022/03/13 12:49:06;;;;;;;9.07;5.00;;;11.10;47.50;;;;;;5072269;28;20540;-51
2022/03/13 12:51:45;;;;;;;6.68;5.85;;;11.00;47.70;;;;;;5072195;28;20044;-52